Terminal Aerodrome Forecast
Issued by NWS Sterling, VA

Current Version | Previous Version | Text Only | Print | Product List | Glossary Off
Versions: 1 2 3 4 5 6 7 8 9 10 11 12 13 14 15 16 17 18

000
FTUS41 KLWX 170400 AAC
TAFMRB
TAF AMD
KMRB 170447Z 1705/1724 VRB04KT 1/2SM FG OVC001
      TEMPO 1705/1709 1/4SM FG
     FM171000 28008KT 4SM BR BKN025
     FM171500 28012G20KT P6SM BKN045
     FM171700 28013G25KT P6SM SCT040=

USA.gov is the U.S. government's official web portal to all federal, state and local government web resources and services.